Aviation Digital Data Service (ADDS)

Output produced by METARs form (1350 UTC 26 May 2018)
found at http://www.aviationweather.gov/adds/metars/
 
TJBQ 261143Z 2612/2712 11006KT P6SM FEW030 
     FM261400 08012KT P6SM FEW025 SCT040 
     FM261700 07016KT P6SM VCTS SCT025CB BKN040 
     FM262300 09008KT P6SM SCT025 AMD NOT SKED 2702/2711
       
TJMZ 261143Z 2612/2712 08006KT P6SM FEW030 
     FM261400 VRB05KT P6SM FEW025 SCT040 
     FM261700 28011KT P6SM VCTS SCT025CB BKN040 
     FM262200 06006KT P6SM SCT040 AMD NOT SKED
       
TJPS 261143Z 2612/2712 08007KT P6SM FEW030 
     FM261500 13014G20KT P6SM SCT030 BKN060 
     FM262300 09008KT P6SM FEW030 FEW060 AMD NOT SKED TIL 270300
       
TJSJ 261143Z 2612/2712 11005KT P6SM FEW025 
     FM261400 08014KT P6SM FEW025 SCT050 
     FM261800 07015G22KT P6SM VCSH SCT025 SCT040 
     FM262200 10006KT P6SM SCT030